createdAt,value
2017-10-10T00:01:04.402Z,1008.94
2017-10-10T00:02:13.234Z,1008.93
2017-10-10T00:03:22.065Z,1008.91
2017-10-10T00:04:31.238Z,1008.91
2017-10-10T00:05:40.070Z,1008.9
2017-10-10T00:06:48.919Z,1008.86
2017-10-10T00:07:57.739Z,1008.84
2017-10-10T00:09:06.568Z,1008.83
2017-10-10T00:10:15.397Z,1008.84
2017-10-10T00:11:24.231Z,1008.84
2017-10-10T00:12:33.064Z,1008.86
2017-10-10T00:13:41.897Z,1008.84
2017-10-10T00:14:50.727Z,1008.83
2017-10-10T00:15:59.558Z,1008.84
2017-10-10T00:17:08.389Z,1008.82
2017-10-10T00:18:17.224Z,1008.82
2017-10-10T00:19:26.053Z,1008.82
2017-10-10T00:20:34.885Z,1008.8
2017-10-10T00:21:43.719Z,1008.76
2017-10-10T00:22:52.556Z,1008.76
2017-10-10T00:24:01.401Z,1008.77
2017-10-10T00:25:10.210Z,1008.78
2017-10-10T00:26:19.042Z,1008.76
2017-10-10T00:27:27.872Z,1008.75
2017-10-10T00:28:36.709Z,1008.77
2017-10-10T00:29:45.542Z,1008.78
2017-10-10T00:30:54.369Z,1008.77
2017-10-10T00:32:03.197Z,1008.76
2017-10-10T00:33:12.027Z,1008.76
2017-10-10T00:34:20.858Z,1008.77
2017-10-10T00:35:29.691Z,1008.7
2017-10-10T00:36:38.864Z,1008.7
2017-10-10T00:37:47.695Z,1008.68
2017-10-10T00:38:56.528Z,1008.69
2017-10-10T00:40:05.359Z,1008.72
2017-10-10T00:41:14.189Z,1008.7
2017-10-10T00:42:23.025Z,1008.68
2017-10-10T00:43:31.858Z,1008.64
2017-10-10T00:44:40.685Z,1008.69
2017-10-10T00:45:49.517Z,1008.65
2017-10-10T00:46:58.353Z,1008.65
2017-10-10T00:48:07.189Z,1008.62
2017-10-10T00:49:16.018Z,1008.59
2017-10-10T00:50:24.848Z,1008.6
2017-10-10T00:51:33.677Z,1008.56
2017-10-10T00:52:42.503Z,1008.59
2017-10-10T00:53:51.676Z,1008.55
2017-10-10T00:55:00.503Z,1008.52
2017-10-10T00:56:09.343Z,1008.56
2017-10-10T00:57:18.166Z,1008.53
2017-10-10T00:58:26.995Z,1008.51
2017-10-10T00:59:35.830Z,1008.54
2017-10-10T01:00:44.664Z,1008.53
2017-10-10T01:01:53.827Z,1008.53
2017-10-10T01:03:02.659Z,1008.53
2017-10-10T01:04:11.490Z,1008.47
2017-10-10T01:05:20.321Z,1008.46
2017-10-10T01:06:29.152Z,1008.46
2017-10-10T01:07:37.996Z,1008.46
2017-10-10T01:08:47.161Z,1008.42
2017-10-10T01:09:55.989Z,1008.43
2017-10-10T01:11:04.822Z,1008.42
2017-10-10T01:12:13.654Z,1008.43
2017-10-10T01:13:22.493Z,1008.44
2017-10-10T01:14:31.315Z,1008.45
2017-10-10T01:15:40.145Z,1008.45
2017-10-10T01:16:48.978Z,1008.45
2017-10-10T01:17:57.812Z,1008.46
2017-10-10T01:19:06.641Z,1008.48
2017-10-10T01:20:15.470Z,1008.47
2017-10-10T01:21:24.300Z,1008.46
2017-10-10T01:22:33.129Z,1008.46
2017-10-10T01:23:41.960Z,1008.42
2017-10-10T01:24:50.792Z,1008.44
2017-10-10T01:25:59.622Z,1008.39
2017-10-10T01:27:08.451Z,1008.43
2017-10-10T01:28:17.281Z,1008.37
2017-10-10T01:29:26.111Z,1008.34
2017-10-10T01:30:34.948Z,1008.29
2017-10-10T01:31:43.779Z,1008.32
2017-10-10T01:32:52.610Z,1008.32
2017-10-10T01:34:01.443Z,1008.35
2017-10-10T01:35:10.268Z,1008.35
2017-10-10T01:36:19.102Z,1008.34
2017-10-10T01:37:27.937Z,1008.32
2017-10-10T01:38:36.764Z,1008.32
2017-10-10T01:39:45.597Z,1008.32
2017-10-10T01:40:54.429Z,1008.33
2017-10-10T01:42:03.259Z,1008.3
2017-10-10T01:43:12.092Z,1008.32
2017-10-10T01:44:20.928Z,1008.31
2017-10-10T01:45:29.754Z,1008.35
2017-10-10T01:46:38.591Z,1008.34
2017-10-10T01:47:47.419Z,1008.36
2017-10-10T01:48:56.254Z,1008.35
2017-10-10T01:50:05.088Z,1008.33
2017-10-10T01:51:13.921Z,1008.34
2017-10-10T01:52:22.750Z,1008.37
2017-10-10T01:53:31.578Z,1008.35
2017-10-10T01:54:40.410Z,1008.37
2017-10-10T01:55:49.237Z,1008.36
2017-10-10T01:56:58.075Z,1008.38
2017-10-10T01:58:06.904Z,1008.35
2017-10-10T01:59:15.730Z,1008.32
2017-10-10T02:00:24.582Z,1008.28
2017-10-10T02:01:33.400Z,1008.29
2017-10-10T02:02:42.233Z,1008.28
2017-10-10T02:03:51.064Z,1008.3
2017-10-10T02:04:59.892Z,1008.3
2017-10-10T02:06:08.722Z,1008.28
2017-10-10T02:07:17.561Z,1008.26
2017-10-10T02:08:26.388Z,1008.23
2017-10-10T02:09:35.216Z,1008.23
2017-10-10T02:10:44.052Z,1008.19
2017-10-10T02:11:52.883Z,1008.17
2017-10-10T02:13:01.716Z,1008.17
2017-10-10T02:14:10.547Z,1008.17
2017-10-10T02:15:19.381Z,1008.17
2017-10-10T02:16:28.213Z,1008.16
2017-10-10T02:17:37.048Z,1008.18
2017-10-10T02:18:45.880Z,1008.19
2017-10-10T02:19:54.709Z,1008.18
2017-10-10T02:21:03.535Z,1008.16
2017-10-10T02:22:12.369Z,1008.11
2017-10-10T02:23:21.201Z,1008.12
2017-10-10T02:24:30.030Z,1008.16
2017-10-10T02:25:38.863Z,1008.15
2017-10-10T02:26:47.694Z,1008.14
2017-10-10T02:27:56.520Z,1008.14
2017-10-10T02:29:05.351Z,1008.14
2017-10-10T02:30:14.182Z,1008.13
2017-10-10T02:31:23.016Z,1008.11
2017-10-10T02:32:32.199Z,1008.13
2017-10-10T02:33:41.030Z,1008.15
2017-10-10T02:34:49.861Z,1008.14
2017-10-10T02:35:59.026Z,1008.17
2017-10-10T02:37:07.862Z,1008.15
2017-10-10T02:38:16.692Z,1008.15
2017-10-10T02:39:25.528Z,1008.2
2017-10-10T02:40:34.688Z,1008.17
2017-10-10T02:41:43.518Z,1008.2
2017-10-10T02:42:52.344Z,1008.2
2017-10-10T02:44:01.181Z,1008.22
2017-10-10T02:45:10.346Z,1008.21
2017-10-10T02:46:19.184Z,1008.27
2017-10-10T02:47:28.008Z,1008.27
2017-10-10T02:48:36.837Z,1008.26
2017-10-10T02:49:45.673Z,1008.27
2017-10-10T02:50:54.844Z,1008.29
2017-10-10T02:52:03.675Z,1008.31
2017-10-10T02:53:12.504Z,1008.29
2017-10-10T02:54:21.337Z,1008.25
2017-10-10T02:55:30.166Z,1008.26
2017-10-10T02:56:39.019Z,1008.28
2017-10-10T02:57:47.835Z,1008.27
2017-10-10T02:58:56.662Z,1008.28
2017-10-10T03:00:05.488Z,1008.24
2017-10-10T03:01:14.325Z,1008.29
2017-10-10T03:02:23.154Z,1008.27
2017-10-10T03:03:31.998Z,1008.23
2017-10-10T03:04:40.824Z,1008.25
2017-10-10T03:05:49.649Z,1008.24
2017-10-10T03:06:58.477Z,1008.28
2017-10-10T03:08:07.312Z,1008.26
2017-10-10T03:09:16.142Z,1008.29
2017-10-10T03:10:24.972Z,1008.26
2017-10-10T03:11:33.801Z,1008.26
2017-10-10T03:12:42.630Z,1008.26
2017-10-10T03:13:51.462Z,1008.25
2017-10-10T03:15:00.295Z,1008.24
2017-10-10T03:16:09.127Z,1008.25
2017-10-10T03:17:17.957Z,1008.26
2017-10-10T03:18:26.789Z,1008.25
2017-10-10T03:19:35.620Z,1008.26
2017-10-10T03:20:44.451Z,1008.25
2017-10-10T03:21:53.284Z,1008.23
2017-10-10T03:23:02.110Z,1008.22
2017-10-10T03:24:10.946Z,1008.21
2017-10-10T03:25:19.778Z,1008.22
2017-10-10T03:26:28.607Z,1008.21
2017-10-10T03:27:37.780Z,1008.23
2017-10-10T03:28:46.607Z,1008.23
2017-10-10T03:29:55.442Z,1008.2
2017-10-10T03:31:04.269Z,1008.18
2017-10-10T03:32:13.100Z,1008.18
2017-10-10T03:33:21.933Z,1008.21
2017-10-10T03:34:30.769Z,1008.17
2017-10-10T03:35:39.594Z,1008.16
2017-10-10T03:36:48.421Z,1008.18
2017-10-10T03:37:57.255Z,1008.18
2017-10-10T03:39:06.087Z,1008.16
2017-10-10T03:40:14.924Z,1008.17
2017-10-10T03:41:23.753Z,1008.17
2017-10-10T03:42:32.581Z,1008.18
2017-10-10T03:43:41.411Z,1008.15
2017-10-10T03:44:50.245Z,1008.15
2017-10-10T03:45:59.421Z,1008.13
2017-10-10T03:47:08.259Z,1008.11
2017-10-10T03:48:17.093Z,1008.14
2017-10-10T03:49:25.930Z,1008.09
2017-10-10T03:50:34.765Z,1008.11
2017-10-10T03:51:43.603Z,1008.11
2017-10-10T03:52:52.438Z,1008.11
2017-10-10T03:54:01.276Z,1008.11
2017-10-10T03:55:10.108Z,1008.09
2017-10-10T03:56:18.943Z,1008.1
2017-10-10T03:57:27.781Z,1008.13
2017-10-10T03:58:36.613Z,1008.07
2017-10-10T03:59:45.453Z,1008.1
2017-10-10T04:00:54.289Z,1008.12
2017-10-10T04:02:03.120Z,1008.11
2017-10-10T04:03:12.298Z,1008.13
2017-10-10T04:04:21.135Z,1008.13
2017-10-10T04:05:29.975Z,1008.2
2017-10-10T04:06:38.810Z,1008.16
2017-10-10T04:07:47.647Z,1008.12
2017-10-10T04:08:56.476Z,1008.17
2017-10-10T04:10:05.319Z,1008.16
2017-10-10T04:11:14.151Z,1008.2
2017-10-10T04:12:22.988Z,1008.17
2017-10-10T04:13:31.820Z,1008.18
2017-10-10T04:14:40.654Z,1008.21
2017-10-10T04:15:49.491Z,1008.2
2017-10-10T04:16:58.331Z,1008.2
2017-10-10T04:18:07.167Z,1008.22
2017-10-10T04:19:16.001Z,1008.22
2017-10-10T04:20:24.831Z,1008.21
2017-10-10T04:21:33.673Z,1008.19
2017-10-10T04:22:42.506Z,1008.22
2017-10-10T04:23:51.349Z,1008.2
2017-10-10T04:25:00.182Z,1008.18
2017-10-10T04:26:09.018Z,1008.18
2017-10-10T04:27:17.846Z,1008.19
2017-10-10T04:28:26.686Z,1008.2
2017-10-10T04:29:35.518Z,1008.17
2017-10-10T04:30:44.356Z,1008.19
2017-10-10T04:31:53.196Z,1008.16
2017-10-10T04:33:02.035Z,1008.19
2017-10-10T04:34:10.867Z,1008.19
2017-10-10T04:35:19.705Z,1008.19
2017-10-10T04:36:28.537Z,1008.17
2017-10-10T04:37:37.391Z,1008.18
2017-10-10T04:38:46.222Z,1008.14
2017-10-10T04:39:55.049Z,1008.14
2017-10-10T04:41:04.224Z,1008.14
2017-10-10T04:42:13.068Z,1008.16
2017-10-10T04:43:22.275Z,1008.14
2017-10-10T04:44:31.449Z,1008.17
2017-10-10T04:45:40.287Z,1008.14
2017-10-10T04:46:49.119Z,1008.12
2017-10-10T04:47:57.952Z,1008.13
2017-10-10T04:49:06.793Z,1008.14
2017-10-10T04:50:15.628Z,1008.13
2017-10-10T04:51:24.464Z,1008.15
2017-10-10T04:52:33.300Z,1008.11
2017-10-10T04:53:42.131Z,1008.15
2017-10-10T04:54:50.967Z,1008.14
2017-10-10T04:55:59.808Z,1008.14
2017-10-10T04:57:08.642Z,1008.16
2017-10-10T04:58:17.477Z,1008.16
2017-10-10T04:59:26.313Z,1008.14
2017-10-10T05:00:35.145Z,1008.13
2017-10-10T05:01:43.992Z,1008.12
2017-10-10T05:02:52.822Z,1008.13
2017-10-10T05:04:01.657Z,1008.13
2017-10-10T05:05:10.490Z,1008.14
2017-10-10T05:06:19.326Z,1008.16
2017-10-10T05:07:28.164Z,1008.19
2017-10-10T05:08:36.999Z,1008.18
2017-10-10T05:09:45.832Z,1008.19
2017-10-10T05:10:54.669Z,1008.21
2017-10-10T05:12:03.508Z,1008.22
2017-10-10T05:13:12.345Z,1008.23
2017-10-10T05:14:21.178Z,1008.19
2017-10-10T05:15:30.014Z,1008.17
2017-10-10T05:16:38.851Z,1008.18
2017-10-10T05:17:47.685Z,1008.23
2017-10-10T05:18:56.523Z,1008.18
2017-10-10T05:20:05.359Z,1008.24
2017-10-10T05:21:14.248Z,1008.23
2017-10-10T05:22:23.080Z,1008.22
2017-10-10T05:23:31.915Z,1008.24
2017-10-10T05:24:40.751Z,1008.27
2017-10-10T05:25:49.598Z,1008.27
2017-10-10T05:26:58.771Z,1008.28
2017-10-10T05:28:07.609Z,1008.25
2017-10-10T05:29:16.442Z,1008.27
2017-10-10T05:30:25.277Z,1008.26
2017-10-10T05:31:34.452Z,1008.29
2017-10-10T05:32:43.291Z,1008.26
2017-10-10T05:33:52.128Z,1008.27
2017-10-10T05:35:00.964Z,1008.25
2017-10-10T05:36:09.800Z,1008.26
2017-10-10T05:37:18.632Z,1008.23
2017-10-10T05:38:27.474Z,1008.28
2017-10-10T05:39:36.329Z,1008.28
2017-10-10T05:40:45.499Z,1008.28
2017-10-10T05:41:54.318Z,1008.29
2017-10-10T05:43:03.153Z,1008.29
2017-10-10T05:44:11.998Z,1008.25
2017-10-10T05:45:21.164Z,1008.27
2017-10-10T05:46:30.000Z,1008.29
2017-10-10T05:47:38.836Z,1008.28
2017-10-10T05:48:47.672Z,1008.29
2017-10-10T05:49:56.505Z,1008.27
2017-10-10T05:51:05.344Z,1008.32
2017-10-10T05:52:14.182Z,1008.28
2017-10-10T05:53:23.015Z,1008.28
2017-10-10T05:54:31.852Z,1008.3
2017-10-10T05:55:40.690Z,1008.28
2017-10-10T05:56:49.526Z,1008.34
2017-10-10T05:57:58.367Z,1008.31
2017-10-10T05:59:07.534Z,1008.32
2017-10-10T06:00:16.710Z,1008.35
2017-10-10T06:01:25.548Z,1008.31
2017-10-10T06:02:34.377Z,1008.31
2017-10-10T06:03:43.211Z,1008.34
2017-10-10T06:04:52.049Z,1008.35
2017-10-10T06:06:00.888Z,1008.37
2017-10-10T06:07:09.717Z,1008.36
2017-10-10T06:08:18.555Z,1008.36
2017-10-10T06:09:27.389Z,1008.42
2017-10-10T06:10:36.219Z,1008.35
2017-10-10T06:11:45.062Z,1008.36
2017-10-10T06:12:53.892Z,1008.4
2017-10-10T06:14:02.736Z,1008.39
2017-10-10T06:15:11.571Z,1008.37
2017-10-10T06:16:20.402Z,1008.4
2017-10-10T06:17:29.234Z,1008.4
2017-10-10T06:18:38.075Z,1008.35
2017-10-10T06:19:46.905Z,1008.39
2017-10-10T06:20:55.743Z,1008.38
2017-10-10T06:22:04.583Z,1008.43
2017-10-10T06:23:13.420Z,1008.4
2017-10-10T06:24:22.247Z,1008.38
2017-10-10T06:25:31.084Z,1008.4
2017-10-10T06:26:39.916Z,1008.4
2017-10-10T06:27:48.760Z,1008.38
2017-10-10T06:28:57.599Z,1008.41
2017-10-10T06:30:06.432Z,1008.38
2017-10-10T06:31:15.265Z,1008.42
2017-10-10T06:32:24.446Z,1008.4
2017-10-10T06:33:33.286Z,1008.42
2017-10-10T06:34:42.462Z,1008.41
2017-10-10T06:35:51.298Z,1008.42
2017-10-10T06:37:00.133Z,1008.42
2017-10-10T06:38:08.965Z,1008.39
2017-10-10T06:39:18.145Z,1008.4
2017-10-10T06:40:26.982Z,1008.37
2017-10-10T06:41:35.815Z,1008.37
2017-10-10T06:42:45.002Z,1008.36
2017-10-10T06:43:53.834Z,1008.41
2017-10-10T06:45:02.668Z,1008.36
2017-10-10T06:46:11.508Z,1008.42
2017-10-10T06:47:20.346Z,1008.4
2017-10-10T06:48:29.181Z,1008.4
2017-10-10T06:49:38.021Z,1008.44
2017-10-10T06:50:46.854Z,1008.42
2017-10-10T06:51:56.026Z,1008.43
2017-10-10T06:53:04.865Z,1008.48
2017-10-10T06:54:13.707Z,1008.47
2017-10-10T06:55:22.878Z,1008.44
2017-10-10T06:56:31.713Z,1008.47
2017-10-10T06:57:40.551Z,1008.42
2017-10-10T06:58:49.386Z,1008.44
2017-10-10T06:59:58.224Z,1008.45
2017-10-10T07:01:07.073Z,1008.41
2017-10-10T07:02:15.896Z,1008.46
2017-10-10T07:03:24.739Z,1008.44
2017-10-10T07:04:33.908Z,1008.45
2017-10-10T07:05:42.740Z,1008.47
2017-10-10T07:06:51.578Z,1008.5
2017-10-10T07:08:00.414Z,1008.47
2017-10-10T07:09:09.261Z,1008.5
2017-10-10T07:10:18.088Z,1008.48
2017-10-10T07:11:26.928Z,1008.52
2017-10-10T07:12:35.761Z,1008.53
2017-10-10T07:13:44.597Z,1008.53
2017-10-10T07:14:53.433Z,1008.51
2017-10-10T07:16:02.275Z,1008.51
2017-10-10T07:17:11.113Z,1008.56
2017-10-10T07:18:19.949Z,1008.51
2017-10-10T07:19:28.786Z,1008.55
2017-10-10T07:20:37.624Z,1008.54
2017-10-10T07:21:46.459Z,1008.55
2017-10-10T07:22:55.294Z,1008.57
2017-10-10T07:24:04.128Z,1008.6
2017-10-10T07:25:12.967Z,1008.6
2017-10-10T07:26:21.812Z,1008.59
2017-10-10T07:27:30.641Z,1008.6
2017-10-10T07:28:39.477Z,1008.58
2017-10-10T07:29:48.316Z,1008.58
2017-10-10T07:30:57.151Z,1008.59
2017-10-10T07:32:05.988Z,1008.6
2017-10-10T07:33:14.824Z,1008.59
2017-10-10T07:34:23.660Z,1008.58
2017-10-10T07:35:32.494Z,1008.63
2017-10-10T07:36:41.328Z,1008.65
2017-10-10T07:37:50.169Z,1008.62
2017-10-10T07:38:59.341Z,1008.63
2017-10-10T07:40:08.178Z,1008.66
2017-10-10T07:41:17.011Z,1008.65
2017-10-10T07:42:25.846Z,1008.61
2017-10-10T07:43:34.684Z,1008.66
2017-10-10T07:44:43.523Z,1008.64
2017-10-10T07:45:52.359Z,1008.59
2017-10-10T07:47:01.194Z,1008.59
2017-10-10T07:48:10.031Z,1008.6
2017-10-10T07:49:18.860Z,1008.58
2017-10-10T07:50:27.700Z,1008.58
2017-10-10T07:51:36.541Z,1008.58
2017-10-10T07:52:45.365Z,1008.58
2017-10-10T07:53:54.196Z,1008.56
2017-10-10T07:55:03.037Z,1008.55
2017-10-10T07:56:12.207Z,1008.6
2017-10-10T07:57:21.047Z,1008.62
2017-10-10T07:58:29.888Z,1008.57
2017-10-10T07:59:38.718Z,1008.6
2017-10-10T08:00:47.549Z,1008.56
2017-10-10T08:01:56.391Z,1008.55
2017-10-10T08:03:05.222Z,1008.58
2017-10-10T08:04:14.079Z,1008.57
2017-10-10T08:05:22.902Z,1008.6
2017-10-10T08:06:31.747Z,1008.57
2017-10-10T08:07:40.582Z,1008.56
2017-10-10T08:08:49.420Z,1008.56
2017-10-10T08:09:58.252Z,1008.57
2017-10-10T08:11:07.088Z,1008.57
2017-10-10T08:12:15.927Z,1008.59
2017-10-10T08:13:24.760Z,1008.59
2017-10-10T08:14:33.597Z,1008.61
2017-10-10T08:15:42.434Z,1008.61
2017-10-10T08:16:51.272Z,1008.61
2017-10-10T08:18:00.111Z,1008.61
2017-10-10T08:19:08.948Z,1008.59
2017-10-10T08:20:17.784Z,1008.6
2017-10-10T08:21:26.620Z,1008.61
2017-10-10T08:22:35.460Z,1008.62
2017-10-10T08:23:44.295Z,1008.63
2017-10-10T08:24:53.131Z,1008.61
2017-10-10T08:26:01.966Z,1008.57
2017-10-10T08:27:10.803Z,1008.52
2017-10-10T08:28:19.637Z,1008.54
2017-10-10T08:29:28.480Z,1008.54
2017-10-10T08:30:37.319Z,1008.57
2017-10-10T08:31:46.154Z,1008.58
2017-10-10T08:32:55.327Z,1008.58
2017-10-10T08:34:04.164Z,1008.57
2017-10-10T08:35:13.003Z,1008.54
2017-10-10T08:36:22.177Z,1008.57
2017-10-10T08:37:31.013Z,1008.55
2017-10-10T08:38:39.849Z,1008.54
2017-10-10T08:39:48.684Z,1008.55
2017-10-10T08:40:57.520Z,1008.52
2017-10-10T08:42:06.352Z,1008.58
2017-10-10T08:43:15.192Z,1008.6
2017-10-10T08:44:24.026Z,1008.63
2017-10-10T08:45:32.866Z,1008.6
2017-10-10T08:46:41.702Z,1008.56
2017-10-10T08:47:50.540Z,1008.61
2017-10-10T08:48:59.374Z,1008.64
2017-10-10T08:50:08.215Z,1008.63
2017-10-10T08:51:17.050Z,1008.61
2017-10-10T08:52:25.886Z,1008.61
2017-10-10T08:53:34.723Z,1008.64
2017-10-10T08:54:43.561Z,1008.61
2017-10-10T08:55:52.389Z,1008.6
2017-10-10T08:57:01.238Z,1008.63
2017-10-10T08:58:10.068Z,1008.63
2017-10-10T08:59:18.922Z,1008.58
2017-10-10T09:00:27.758Z,1008.57
2017-10-10T09:01:36.951Z,1008.55
2017-10-10T09:02:45.785Z,1008.56
2017-10-10T09:03:54.624Z,1008.57
2017-10-10T09:05:03.466Z,1008.53
2017-10-10T09:06:12.304Z,1008.54
2017-10-10T09:07:21.139Z,1008.56
2017-10-10T09:08:29.977Z,1008.58
2017-10-10T09:09:38.813Z,1008.57
2017-10-10T09:10:47.651Z,1008.57
2017-10-10T09:11:56.823Z,1008.6
2017-10-10T09:13:05.994Z,1008.54
2017-10-10T09:14:14.825Z,1008.59
2017-10-10T09:15:23.663Z,1008.56
2017-10-10T09:16:32.839Z,1008.51
2017-10-10T09:17:41.678Z,1008.58
2017-10-10T09:18:50.883Z,1008.53
2017-10-10T09:19:59.687Z,1008.54
2017-10-10T09:21:08.525Z,1008.54
2017-10-10T09:22:17.363Z,1008.55
2017-10-10T09:23:26.201Z,1008.56
2017-10-10T09:24:35.042Z,1008.56
2017-10-10T09:25:43.874Z,1008.56
2017-10-10T09:26:52.715Z,1008.57
2017-10-10T09:28:01.554Z,1008.54
2017-10-10T09:29:10.390Z,1008.52
2017-10-10T09:30:19.230Z,1008.52
2017-10-10T09:31:28.066Z,1008.49
2017-10-10T09:32:36.900Z,1008.5
2017-10-10T09:33:45.741Z,1008.47
2017-10-10T09:34:54.580Z,1008.51
2017-10-10T09:36:03.420Z,1008.48
2017-10-10T09:37:12.254Z,1008.5
2017-10-10T09:38:21.090Z,1008.51
2017-10-10T09:39:29.925Z,1008.51
2017-10-10T09:40:38.763Z,1008.5
2017-10-10T09:41:47.601Z,1008.44
2017-10-10T09:42:56.440Z,1008.46
2017-10-10T09:44:05.273Z,1008.48
2017-10-10T09:45:14.119Z,1008.46
2017-10-10T09:46:22.954Z,1008.45
2017-10-10T09:47:31.792Z,1008.42
2017-10-10T09:48:40.627Z,1008.43
2017-10-10T09:49:49.464Z,1008.43
2017-10-10T09:50:58.293Z,1008.42
2017-10-10T09:52:07.142Z,1008.45
2017-10-10T09:53:15.977Z,1008.43
2017-10-10T09:54:24.820Z,1008.42
2017-10-10T09:55:33.655Z,1008.37
2017-10-10T09:56:42.495Z,1008.42
2017-10-10T09:57:51.325Z,1008.43
2017-10-10T09:59:00.163Z,1008.43
2017-10-10T10:00:08.997Z,1008.45
2017-10-10T10:01:17.834Z,1008.43
2017-10-10T10:02:26.676Z,1008.45
2017-10-10T10:03:35.509Z,1008.42
2017-10-10T10:04:44.347Z,1008.45
2017-10-10T10:05:53.186Z,1008.43
2017-10-10T10:07:02.023Z,1008.38
2017-10-10T10:08:10.857Z,1008.44
2017-10-10T10:09:19.690Z,1008.39
2017-10-10T10:10:28.532Z,1008.4
2017-10-10T10:11:37.366Z,1008.41
2017-10-10T10:12:46.208Z,1008.41
2017-10-10T10:13:55.054Z,1008.43
2017-10-10T10:15:03.885Z,1008.41
2017-10-10T10:16:12.725Z,1008.41
2017-10-10T10:17:21.559Z,1008.4
2017-10-10T10:18:30.395Z,1008.37
2017-10-10T10:19:39.240Z,1008.34
2017-10-10T10:20:48.078Z,1008.33
2017-10-10T10:21:56.916Z,1008.33
2017-10-10T10:23:05.754Z,1008.32
2017-10-10T10:24:14.586Z,1008.35
2017-10-10T10:25:23.424Z,1008.3
2017-10-10T10:26:32.261Z,1008.31
2017-10-10T10:27:41.099Z,1008.38
2017-10-10T10:28:49.935Z,1008.36
2017-10-10T10:29:58.773Z,1008.36
2017-10-10T10:31:07.608Z,1008.33
2017-10-10T10:32:16.450Z,1008.31
2017-10-10T10:33:25.627Z,1008.29
2017-10-10T10:34:34.459Z,1008.32
2017-10-10T10:35:43.301Z,1008.27
2017-10-10T10:36:52.137Z,1008.28
2017-10-10T10:38:00.975Z,1008.29
2017-10-10T10:39:09.809Z,1008.32
2017-10-10T10:40:18.647Z,1008.33
2017-10-10T10:41:27.486Z,1008.31
2017-10-10T10:42:36.320Z,1008.32
2017-10-10T10:43:45.160Z,1008.27
2017-10-10T10:44:54.336Z,1008.26
2017-10-10T10:46:03.170Z,1008.26
2017-10-10T10:47:12.009Z,1008.21
2017-10-10T10:48:20.846Z,1008.23
2017-10-10T10:49:29.687Z,1008.21
2017-10-10T10:50:38.524Z,1008.19
2017-10-10T10:51:47.366Z,1008.24
2017-10-10T10:52:56.196Z,1008.22
2017-10-10T10:54:05.374Z,1008.22
2017-10-10T10:55:14.216Z,1008.22
2017-10-10T10:56:23.051Z,1008.22
2017-10-10T10:57:31.891Z,1008.18
2017-10-10T10:58:40.735Z,1008.17
2017-10-10T10:59:49.569Z,1008.13
2017-10-10T11:00:58.407Z,1008.11
2017-10-10T11:02:07.248Z,1008.11
2017-10-10T11:03:16.083Z,1008.09
2017-10-10T11:04:24.916Z,1008.12
2017-10-10T11:05:33.759Z,1008.11
2017-10-10T11:06:42.589Z,1008.14
2017-10-10T11:07:51.432Z,1008.11
2017-10-10T11:09:00.271Z,1008.14
2017-10-10T11:10:09.104Z,1008.12
2017-10-10T11:11:17.943Z,1008.12
2017-10-10T11:12:26.780Z,1008.11
2017-10-10T11:13:35.613Z,1008.1
2017-10-10T11:14:44.455Z,1008.07
2017-10-10T11:15:53.297Z,1008.11
2017-10-10T11:17:02.133Z,1008.1
2017-10-10T11:18:10.967Z,1008.06
2017-10-10T11:19:19.803Z,1008.12
2017-10-10T11:20:28.643Z,1008.11
2017-10-10T11:21:37.482Z,1008.11
2017-10-10T11:22:46.667Z,1008.15
2017-10-10T11:23:55.501Z,1008.13
2017-10-10T11:25:04.340Z,1008.14
2017-10-10T11:26:13.176Z,1008.16
2017-10-10T11:27:22.017Z,1008.14
2017-10-10T11:28:30.855Z,1008.12
2017-10-10T11:29:39.703Z,1008.11
2017-10-10T11:30:48.532Z,1008.09
2017-10-10T11:31:57.364Z,1008.11
2017-10-10T11:33:06.208Z,1008.09
2017-10-10T11:34:15.048Z,1008.11
2017-10-10T11:35:23.885Z,1008.11
2017-10-10T11:36:32.722Z,1008.07
2017-10-10T11:37:41.554Z,1008.1
2017-10-10T11:38:50.396Z,1008.03
2017-10-10T11:39:59.236Z,1008.08
2017-10-10T11:41:08.419Z,1008.07
2017-10-10T11:42:17.248Z,1008.02
2017-10-10T11:43:26.089Z,1008.06
2017-10-10T11:44:34.926Z,1008.03
2017-10-10T11:45:43.765Z,1008.04
2017-10-10T11:46:52.607Z,1008.01
2017-10-10T11:48:01.454Z,1008.05
2017-10-10T11:49:10.290Z,1008
2017-10-10T11:50:19.122Z,1008.03
2017-10-10T11:51:27.963Z,1008.04
2017-10-10T11:52:36.797Z,1008.09
2017-10-10T11:53:45.642Z,1008.08
2017-10-10T11:54:54.810Z,1008.04
2017-10-10T11:56:03.646Z,1008.03
2017-10-10T11:57:12.484Z,1008.07
2017-10-10T11:58:21.322Z,1008.04
2017-10-10T11:59:30.160Z,1008.1
2017-10-10T12:00:38.996Z,1008.06
2017-10-10T12:01:47.837Z,1008.12
2017-10-10T12:02:56.678Z,1008.07
2017-10-10T12:04:05.517Z,1008.07
2017-10-10T12:05:14.353Z,1008.12
2017-10-10T12:06:23.185Z,1008.08
2017-10-10T12:07:32.024Z,1008.09
2017-10-10T12:08:40.863Z,1008.1
2017-10-10T12:09:49.703Z,1008.1
2017-10-10T12:10:58.538Z,1008.07
2017-10-10T12:12:07.381Z,1008.12
2017-10-10T12:13:16.211Z,1008.13
2017-10-10T12:14:25.053Z,1008.06
2017-10-10T12:15:33.892Z,1008.13
2017-10-10T12:16:42.733Z,1008.09
2017-10-10T12:17:51.569Z,1008.13
2017-10-10T12:19:00.406Z,1008.08
2017-10-10T12:20:09.250Z,1008.07
2017-10-10T12:21:18.079Z,1008.11
2017-10-10T12:22:26.921Z,1008.08
2017-10-10T12:23:35.758Z,1008.06
2017-10-10T12:24:44.592Z,1008.11
2017-10-10T12:25:53.435Z,1008.11
2017-10-10T12:27:02.282Z,1008.15
2017-10-10T12:28:11.113Z,1008.13
2017-10-10T12:29:19.947Z,1008.14
2017-10-10T12:30:28.791Z,1008.12
2017-10-10T12:31:37.624Z,1008.09
2017-10-10T12:32:46.461Z,1008.07
2017-10-10T12:33:55.298Z,1008.1
2017-10-10T12:35:04.137Z,1008.04
2017-10-10T12:36:12.981Z,1008.04
2017-10-10T12:37:21.814Z,1008.02
2017-10-10T12:38:30.649Z,1008.03
2017-10-10T12:39:39.490Z,1008.01
2017-10-10T12:40:48.328Z,1008.01
2017-10-10T12:41:57.163Z,1008.02
2017-10-10T12:43:06.008Z,1008
2017-10-10T12:44:14.847Z,1007.99
2017-10-10T12:45:23.682Z,1007.96
2017-10-10T12:46:32.525Z,1007.98
2017-10-10T12:47:41.362Z,1007.95
2017-10-10T12:48:50.201Z,1007.95
2017-10-10T12:49:59.037Z,1007.97
2017-10-10T12:51:08.210Z,1007.99
2017-10-10T12:52:17.046Z,1007.99
2017-10-10T12:53:25.887Z,1008
2017-10-10T12:54:34.727Z,1007.97
2017-10-10T12:55:43.564Z,1007.97
2017-10-10T12:56:52.400Z,1007.97
2017-10-10T12:58:01.235Z,1007.99
2017-10-10T12:59:10.076Z,1007.97
2017-10-10T13:00:18.920Z,1007.93
2017-10-10T13:01:27.771Z,1007.9
2017-10-10T13:02:36.590Z,1007.91
2017-10-10T13:03:45.434Z,1007.85
2017-10-10T13:04:54.271Z,1007.87
2017-10-10T13:06:03.103Z,1007.87
2017-10-10T13:07:11.942Z,1007.81
2017-10-10T13:08:20.782Z,1007.84
2017-10-10T13:09:29.623Z,1007.83
2017-10-10T13:10:38.461Z,1007.83
2017-10-10T13:11:47.297Z,1007.84
2017-10-10T13:12:56.137Z,1007.8
2017-10-10T13:14:04.976Z,1007.77
2017-10-10T13:15:13.813Z,1007.78
2017-10-10T13:16:22.650Z,1007.78
2017-10-10T13:17:31.823Z,1007.81
2017-10-10T13:18:40.664Z,1007.8
2017-10-10T13:19:49.504Z,1007.8
2017-10-10T13:20:58.342Z,1007.74
2017-10-10T13:22:07.181Z,1007.76
2017-10-10T13:23:16.024Z,1007.77
2017-10-10T13:24:24.861Z,1007.78
2017-10-10T13:25:33.697Z,1007.77
2017-10-10T13:26:42.540Z,1007.79
2017-10-10T13:27:51.377Z,1007.84
2017-10-10T13:29:00.209Z,1007.8
2017-10-10T13:30:09.048Z,1007.83
2017-10-10T13:31:17.893Z,1007.79
2017-10-10T13:32:26.724Z,1007.81
2017-10-10T13:33:35.564Z,1007.8
2017-10-10T13:34:44.401Z,1007.81
2017-10-10T13:35:53.240Z,1007.85
2017-10-10T13:37:02.074Z,1007.84
2017-10-10T13:38:10.920Z,1007.91
2017-10-10T13:39:19.760Z,1007.92
2017-10-10T13:40:28.603Z,1007.9
2017-10-10T13:41:37.437Z,1007.9
2017-10-10T13:42:46.270Z,1007.92
2017-10-10T13:43:55.113Z,1007.91
2017-10-10T13:45:03.952Z,1007.88
2017-10-10T13:46:12.793Z,1007.85
2017-10-10T13:47:21.630Z,1007.89
2017-10-10T13:48:30.474Z,1007.92
2017-10-10T13:49:39.312Z,1007.9
2017-10-10T13:50:48.155Z,1007.89
2017-10-10T13:51:56.992Z,1007.89
2017-10-10T13:53:06.163Z,1007.91
2017-10-10T13:54:15.342Z,1007.94
2017-10-10T13:55:24.174Z,1007.93
2017-10-10T13:56:33.019Z,1007.92